createdAt,value
2024-01-20T00:01:03.446Z,35.88
2024-01-20T00:03:29.935Z,37.30
2024-01-20T00:05:56.593Z,37.47
2024-01-20T00:08:23.134Z,38.95
2024-01-20T00:10:49.542Z,38.00
2024-01-20T00:13:16.465Z,38.08
2024-01-20T00:15:42.995Z,38.85
2024-01-20T00:18:09.993Z,37.30
2024-01-20T00:20:36.559Z,38.22
2024-01-20T00:23:03.352Z,39.58
2024-01-20T00:25:30.005Z,37.45
2024-01-20T00:27:56.528Z,37.17
2024-01-20T00:30:23.277Z,36.33
2024-01-20T00:32:49.847Z,38.47
2024-01-20T00:35:16.853Z,38.20
2024-01-20T00:37:43.272Z,39.53
2024-01-20T00:40:10.814Z,37.97
2024-01-20T00:42:37.318Z,38.10
2024-01-20T00:45:05.569Z,37.42
2024-01-20T00:47:32.103Z,37.53
2024-01-20T00:49:58.876Z,37.42
2024-01-20T00:52:25.351Z,37.95
2024-01-20T00:54:52.228Z,37.10
2024-01-20T00:57:18.835Z,37.58
2024-01-20T00:59:45.213Z,37.85
2024-01-20T01:02:12.385Z,39.70
2024-01-20T01:04:38.897Z,37.47
2024-01-20T01:07:05.275Z,39.20
2024-01-20T01:09:31.660Z,38.67
2024-01-20T01:11:58.059Z,35.10
2024-01-20T01:14:24.571Z,36.75
2024-01-20T01:16:51.125Z,39.83
2024-01-20T01:19:17.563Z,40.60
2024-01-20T01:21:43.995Z,38.72
2024-01-20T01:24:10.765Z,40.17
2024-01-20T01:26:37.486Z,40.83
2024-01-20T01:29:04.900Z,40.05
2024-01-20T01:31:31.405Z,38.63
2024-01-20T01:33:57.900Z,38.15
2024-01-20T01:36:24.553Z,40.42
2024-01-20T01:38:50.984Z,39.70
2024-01-20T01:41:17.521Z,39.20
2024-01-20T01:43:44.098Z,38.78
2024-01-20T01:46:10.565Z,38.88
2024-01-20T01:48:37.630Z,39.47
2024-01-20T01:51:05.174Z,40.67
2024-01-20T01:53:33.661Z,38.03
2024-01-20T01:56:04.203Z,38.53
2024-01-20T01:58:30.695Z,38.83
2024-01-20T02:00:57.474Z,36.97
2024-01-20T02:03:24.481Z,38.08
2024-01-20T02:05:51.225Z,39.25
2024-01-20T02:08:17.710Z,38.08
2024-01-20T02:10:44.301Z,38.35
2024-01-20T02:13:16.989Z,38.88
2024-01-20T02:15:43.768Z,38.40
2024-01-20T02:18:10.813Z,38.75
2024-01-20T02:20:37.336Z,37.80
2024-01-20T02:23:04.132Z,37.03
2024-01-20T02:25:30.623Z,36.75
2024-01-20T02:27:57.050Z,35.78
2024-01-20T02:30:23.594Z,35.60
2024-01-20T02:32:50.221Z,38.00
2024-01-20T02:35:18.445Z,35.63
2024-01-20T02:37:44.874Z,35.72
2024-01-20T02:40:11.933Z,35.17
2024-01-20T02:42:38.378Z,34.15
2024-01-20T02:45:05.284Z,34.13
2024-01-20T02:47:31.812Z,33.55
2024-01-20T02:49:58.233Z,32.92
2024-01-20T02:52:24.694Z,32.35
2024-01-20T02:54:51.091Z,31.13
2024-01-20T02:57:17.575Z,32.63
2024-01-20T02:59:44.055Z,31.33
2024-01-20T03:02:10.413Z,31.75
2024-01-20T03:04:36.853Z,30.20
2024-01-20T03:07:03.404Z,31.35
2024-01-20T03:09:29.859Z,32.60
2024-01-20T03:11:56.371Z,30.33
2024-01-20T03:14:22.847Z,30.27
2024-01-20T03:16:49.311Z,28.60
2024-01-20T03:19:15.752Z,29.30
2024-01-20T03:21:42.144Z,31.42
2024-01-20T03:24:08.637Z,28.85
2024-01-20T03:26:35.105Z,28.25
2024-01-20T03:29:01.460Z,27.65
2024-01-20T03:31:27.948Z,28.15
2024-01-20T03:33:54.418Z,27.70
2024-01-20T03:36:20.983Z,27.73
2024-01-20T03:38:47.386Z,27.08
2024-01-20T03:41:13.800Z,25.33
2024-01-20T03:43:40.168Z,25.50
2024-01-20T03:46:06.541Z,25.80
2024-01-20T03:48:33.178Z,23.90
2024-01-20T03:50:59.713Z,24.23
2024-01-20T03:53:26.166Z,26.15
2024-01-20T03:55:52.522Z,25.80
2024-01-20T03:58:18.944Z,25.15
2024-01-20T04:00:45.342Z,26.15
2024-01-20T04:03:13.002Z,24.73
2024-01-20T04:05:39.433Z,26.45
2024-01-20T04:08:06.248Z,25.27
2024-01-20T04:10:32.641Z,25.17
2024-01-20T04:12:59.017Z,24.58
2024-01-20T04:15:25.466Z,25.15
2024-01-20T04:17:52.007Z,24.00
2024-01-20T04:20:18.592Z,26.50
2024-01-20T04:22:44.965Z,25.40
2024-01-20T04:25:11.453Z,24.75
2024-01-20T04:27:37.830Z,25.83
2024-01-20T04:30:04.725Z,24.60
2024-01-20T04:32:31.143Z,25.77
2024-01-20T04:34:57.505Z,25.33
2024-01-20T04:37:23.888Z,24.73
2024-01-20T04:39:50.288Z,26.58
2024-01-20T04:42:16.680Z,24.80
2024-01-20T04:44:43.077Z,29.58
2024-01-20T04:47:09.477Z,28.08
2024-01-20T04:49:35.901Z,28.35
2024-01-20T04:52:02.343Z,29.35
2024-01-20T04:54:29.396Z,26.95
2024-01-20T04:56:57.129Z,27.30
2024-01-20T04:59:23.673Z,28.52
2024-01-20T05:01:50.060Z,28.95
2024-01-20T05:04:16.487Z,29.60
2024-01-20T05:06:43.087Z,28.45
2024-01-20T05:09:09.801Z,28.70
2024-01-20T05:11:36.196Z,28.15
2024-01-20T05:14:02.630Z,28.65
2024-01-20T05:16:29.010Z,28.17
2024-01-20T05:18:55.598Z,30.30
2024-01-20T05:21:22.309Z,30.17
2024-01-20T05:23:49.429Z,31.58
2024-01-20T05:26:15.845Z,30.77
2024-01-20T05:28:42.242Z,33.15
2024-01-20T05:31:08.935Z,32.13
2024-01-20T05:33:35.409Z,31.17
2024-01-20T05:36:01.878Z,31.23
2024-01-20T05:38:28.361Z,30.27
2024-01-20T05:40:54.803Z,30.80
2024-01-20T05:43:21.172Z,32.08
2024-01-20T05:45:47.558Z,30.77
2024-01-20T05:48:14.077Z,33.13
2024-01-20T05:50:40.564Z,32.67
2024-01-20T05:53:06.984Z,32.70
2024-01-20T05:55:33.417Z,31.63
2024-01-20T05:57:59.786Z,32.40
2024-01-20T06:00:26.245Z,30.88
2024-01-20T06:02:53.250Z,31.95
2024-01-20T06:05:19.710Z,33.35
2024-01-20T06:07:46.104Z,32.55
2024-01-20T06:10:12.582Z,32.13
2024-01-20T06:12:39.186Z,32.22
2024-01-20T06:15:06.196Z,32.90
2024-01-20T06:17:32.700Z,32.47
2024-01-20T06:19:59.146Z,32.15
2024-01-20T06:22:25.508Z,34.33
2024-01-20T06:24:52.062Z,34.20
2024-01-20T06:27:18.500Z,33.75
2024-01-20T06:29:44.913Z,31.77
2024-01-20T06:32:11.363Z,32.03
2024-01-20T06:34:37.853Z,31.52
2024-01-20T06:37:04.468Z,31.08
2024-01-20T06:39:30.932Z,31.60
2024-01-20T06:41:57.577Z,32.47
2024-01-20T06:44:24.045Z,32.90
2024-01-20T06:46:50.443Z,33.13
2024-01-20T06:49:17.000Z,33.65
2024-01-20T06:51:43.436Z,34.28
2024-01-20T06:54:10.263Z,33.65
2024-01-20T06:56:36.752Z,33.22
2024-01-20T06:59:03.267Z,34.53
2024-01-20T07:01:29.665Z,34.90
2024-01-20T07:03:56.209Z,32.03
2024-01-20T07:06:26.339Z,35.00
2024-01-20T07:08:53.021Z,31.75
2024-01-20T07:11:19.430Z,33.50
2024-01-20T07:13:45.820Z,32.65
2024-01-20T07:16:13.160Z,33.20
2024-01-20T07:18:40.567Z,32.78
2024-01-20T07:21:07.470Z,31.30
2024-01-20T07:23:34.431Z,32.95
2024-01-20T07:26:01.387Z,31.75
2024-01-20T07:28:28.156Z,32.17
2024-01-20T07:30:54.566Z,31.08
2024-01-20T07:33:21.891Z,30.48
2024-01-20T07:35:48.422Z,32.10
2024-01-20T07:38:14.970Z,31.58
2024-01-20T07:40:41.444Z,32.33
2024-01-20T07:43:07.884Z,33.20
2024-01-20T07:45:34.847Z,31.70
2024-01-20T07:48:01.637Z,32.63
2024-01-20T07:50:28.236Z,31.63
2024-01-20T07:52:54.611Z,31.65
2024-01-20T07:55:20.985Z,28.95
2024-01-20T07:57:47.612Z,30.90
2024-01-20T08:00:14.235Z,30.92
2024-01-20T08:02:40.772Z,30.27
2024-01-20T08:05:07.396Z,30.67
2024-01-20T08:07:34.149Z,32.50
2024-01-20T08:10:00.602Z,30.77
2024-01-20T08:12:27.095Z,31.13
2024-01-20T08:14:53.496Z,30.05
2024-01-20T08:17:19.898Z,30.38
2024-01-20T08:19:46.329Z,30.17
2024-01-20T08:22:12.758Z,29.63
2024-01-20T08:24:39.463Z,30.48
2024-01-20T08:27:05.879Z,29.95
2024-01-20T08:29:32.400Z,29.80
2024-01-20T08:31:58.840Z,30.42
2024-01-20T08:34:25.375Z,30.13
2024-01-20T08:36:51.785Z,31.52
2024-01-20T08:39:18.205Z,30.55
2024-01-20T08:41:44.613Z,29.50
2024-01-20T08:44:11.217Z,31.20
2024-01-20T08:46:37.631Z,32.13
2024-01-20T08:49:04.024Z,31.27
2024-01-20T08:51:30.493Z,32.30
2024-01-20T08:53:56.975Z,32.63
2024-01-20T08:56:23.348Z,32.97
2024-01-20T08:58:49.876Z,33.10
2024-01-20T09:01:19.350Z,33.15
2024-01-20T09:03:45.795Z,33.17
2024-01-20T09:06:15.304Z,34.10
2024-01-20T09:08:41.929Z,32.83
2024-01-20T09:11:08.399Z,32.65
2024-01-20T09:13:34.784Z,30.20
2024-01-20T09:16:01.454Z,32.25
2024-01-20T09:18:28.040Z,32.75
2024-01-20T09:20:54.603Z,32.80
2024-01-20T09:23:21.342Z,33.17
2024-01-20T09:25:47.717Z,31.10
2024-01-20T09:28:14.152Z,32.20
2024-01-20T09:30:40.798Z,30.95
2024-01-20T09:33:07.439Z,30.73
2024-01-20T09:35:33.993Z,29.58
2024-01-20T09:38:00.613Z,29.40
2024-01-20T09:40:27.197Z,29.02
2024-01-20T09:42:53.950Z,28.60
2024-01-20T09:45:20.776Z,29.50
2024-01-20T09:47:47.419Z,28.48
2024-01-20T09:50:13.958Z,27.80
2024-01-20T09:52:54.946Z,28.45
2024-01-20T09:55:22.795Z,28.63
2024-01-20T09:57:50.603Z,27.50
2024-01-20T10:00:18.047Z,25.45
2024-01-20T10:02:48.090Z,25.95
2024-01-20T10:05:15.604Z,27.65
2024-01-20T10:07:42.628Z,27.83
2024-01-20T10:10:18.218Z,25.55
2024-01-20T10:12:48.468Z,25.17
2024-01-20T10:15:14.998Z,26.45
2024-01-20T10:17:41.441Z,26.20
2024-01-20T10:20:08.038Z,24.80
2024-01-20T10:22:34.450Z,23.52
2024-01-20T10:25:00.889Z,23.98
2024-01-20T10:27:27.368Z,25.33
2024-01-20T10:29:53.859Z,22.73
2024-01-20T10:32:20.323Z,22.55
2024-01-20T10:34:46.955Z,21.75
2024-01-20T10:37:14.774Z,21.25
2024-01-20T10:39:43.616Z,21.98
2024-01-20T10:42:15.007Z,21.63
2024-01-20T10:45:10.093Z,19.98
2024-01-20T10:47:38.857Z,21.08
2024-01-20T10:50:06.871Z,19.02
2024-01-20T10:52:33.966Z,18.80
2024-01-20T10:55:01.461Z,17.15
2024-01-20T10:57:28.104Z,17.60
2024-01-20T10:59:59.868Z,17.25
2024-01-20T11:02:27.648Z,16.20
2024-01-20T11:04:54.311Z,16.35
2024-01-20T11:07:24.805Z,15.43
2024-01-20T11:09:57.922Z,15.10
2024-01-20T11:12:25.609Z,15.52
2024-01-20T11:14:53.525Z,16.63
2024-01-20T11:17:20.912Z,15.38
2024-01-20T11:19:47.473Z,15.23
2024-01-20T11:22:40.121Z,13.95
2024-01-20T11:25:08.665Z,13.90
2024-01-20T11:27:48.902Z,14.50
2024-01-20T11:30:25.443Z,13.75
2024-01-20T11:32:51.982Z,15.10
2024-01-20T11:35:18.476Z,13.88
2024-01-20T11:37:44.939Z,13.55
2024-01-20T11:40:11.954Z,12.77
2024-01-20T11:42:38.467Z,12.82
2024-01-20T11:45:06.062Z,12.70
2024-01-20T11:47:33.392Z,13.15
2024-01-20T11:50:00.465Z,12.20
2024-01-20T11:52:27.246Z,12.10
2024-01-20T11:54:54.319Z,12.95
2024-01-20T11:57:25.236Z,12.25
2024-01-20T11:59:51.711Z,12.75
2024-01-20T12:02:18.129Z,11.75
2024-01-20T12:04:44.598Z,11.68
2024-01-20T12:07:11.234Z,11.48
2024-01-20T12:09:37.833Z,12.18
2024-01-20T12:12:05.338Z,11.18
2024-01-20T12:14:31.797Z,12.27
2024-01-20T12:16:58.247Z,12.25
2024-01-20T12:19:24.812Z,11.20
2024-01-20T12:21:51.347Z,12.30
2024-01-20T12:24:18.026Z,12.70
2024-01-20T12:26:44.514Z,11.85
2024-01-20T12:29:10.986Z,11.98
2024-01-20T12:31:37.506Z,11.48
2024-01-20T12:34:04.058Z,11.35
2024-01-20T12:36:30.594Z,10.43
2024-01-20T12:38:57.045Z,11.10
2024-01-20T12:41:23.517Z,11.45
2024-01-20T12:43:50.242Z,11.38
2024-01-20T12:46:17.297Z,11.15
2024-01-20T12:48:43.954Z,10.73
2024-01-20T12:51:11.788Z,10.73
2024-01-20T12:53:38.416Z,10.65
2024-01-20T12:56:05.320Z,9.90
2024-01-20T12:58:31.751Z,10.82
2024-01-20T13:00:58.543Z,10.63
2024-01-20T13:03:25.314Z,10.07
2024-01-20T13:05:53.369Z,9.45
2024-01-20T13:08:19.868Z,9.93
2024-01-20T13:10:46.316Z,9.23
2024-01-20T13:13:13.385Z,9.90
2024-01-20T13:15:39.946Z,9.43
2024-01-20T13:18:06.573Z,9.77
2024-01-20T13:20:33.067Z,9.80
2024-01-20T13:22:59.510Z,9.95
2024-01-20T13:25:26.637Z,9.95
2024-01-20T13:27:53.251Z,9.50
2024-01-20T13:30:19.801Z,10.07
2024-01-20T13:32:46.566Z,9.23
2024-01-20T13:35:13.036Z,9.50
2024-01-20T13:37:39.500Z,9.50
2024-01-20T13:40:06.480Z,8.10
2024-01-20T13:42:33.010Z,9.48
2024-01-20T13:44:59.488Z,8.88
2024-01-20T13:47:26.012Z,9.15
2024-01-20T13:49:52.593Z,9.18
2024-01-20T13:52:19.124Z,9.35
2024-01-20T13:54:45.661Z,9.40
2024-01-20T13:57:12.212Z,8.77
2024-01-20T13:59:38.705Z,8.38
2024-01-20T14:02:05.247Z,9.80
2024-01-20T14:04:31.779Z,8.98
2024-01-20T14:06:59.753Z,8.85
2024-01-20T14:09:27.200Z,8.35
2024-01-20T14:11:53.678Z,8.75
2024-01-20T14:14:20.139Z,8.43
2024-01-20T14:16:59.401Z,9.55
2024-01-20T14:19:25.994Z,9.15
2024-01-20T14:21:52.521Z,8.80
2024-01-20T14:24:19.030Z,8.55
2024-01-20T14:26:45.928Z,9.23
2024-01-20T14:29:12.509Z,8.75
2024-01-20T14:31:53.083Z,8.30
2024-01-20T14:34:21.106Z,8.43
2024-01-20T14:36:50.126Z,8.07
2024-01-20T14:39:16.616Z,8.70
2024-01-20T14:41:43.515Z,8.10
2024-01-20T14:44:10.557Z,7.28
2024-01-20T14:46:37.021Z,7.38
2024-01-20T14:49:07.177Z,7.18
2024-01-20T14:51:35.716Z,6.97
2024-01-20T14:54:02.306Z,7.32
2024-01-20T14:56:28.805Z,7.45
2024-01-20T14:58:59.244Z,7.55
2024-01-20T15:01:25.703Z,8.07
2024-01-20T15:03:52.212Z,6.60
2024-01-20T15:06:18.789Z,7.20
2024-01-20T15:08:45.272Z,7.38
2024-01-20T15:11:11.829Z,7.35
2024-01-20T15:13:38.354Z,6.85
2024-01-20T15:16:05.065Z,7.28
2024-01-20T15:18:31.658Z,6.40
2024-01-20T15:20:58.348Z,6.85
2024-01-20T15:23:24.802Z,6.57
2024-01-20T15:25:53.518Z,7.47
2024-01-20T15:28:21.524Z,6.97
2024-01-20T15:30:48.015Z,7.50
2024-01-20T15:33:14.708Z,7.93
2024-01-20T15:35:41.226Z,7.00
2024-01-20T15:38:07.717Z,7.35
2024-01-20T15:40:34.150Z,6.70
2024-01-20T15:43:00.635Z,6.88
2024-01-20T15:45:27.224Z,7.00
2024-01-20T15:47:53.719Z,7.28
2024-01-20T15:50:20.396Z,7.57
2024-01-20T15:52:46.817Z,7.20
2024-01-20T15:55:13.284Z,7.18
2024-01-20T15:57:39.878Z,8.02
2024-01-20T16:00:07.400Z,7.72
2024-01-20T16:02:33.865Z,9.00
2024-01-20T16:05:00.356Z,7.90
2024-01-20T16:07:26.913Z,7.68
2024-01-20T16:09:53.437Z,7.75
2024-01-20T16:12:19.920Z,7.72
2024-01-20T16:14:46.389Z,7.32
2024-01-20T16:17:12.864Z,8.02
2024-01-20T16:19:39.341Z,7.30
2024-01-20T16:22:05.812Z,7.25
2024-01-20T16:24:32.304Z,7.10
2024-01-20T16:26:58.865Z,7.22
2024-01-20T16:29:25.326Z,7.65
2024-01-20T16:31:51.714Z,7.88
2024-01-20T16:34:18.518Z,8.00
2024-01-20T16:36:45.225Z,7.07
2024-01-20T16:39:11.880Z,7.03
2024-01-20T16:41:38.406Z,7.93
2024-01-20T16:44:04.887Z,7.68
2024-01-20T16:46:31.316Z,7.32
2024-01-20T16:48:58.006Z,7.13
2024-01-20T16:51:27.504Z,7.25
2024-01-20T16:53:54.569Z,6.45
2024-01-20T16:56:22.420Z,6.15
2024-01-20T16:58:49.108Z,6.25
2024-01-20T17:01:15.663Z,7.03
2024-01-20T17:03:42.220Z,6.78
2024-01-20T17:06:08.671Z,5.78
2024-01-20T17:08:35.073Z,6.07
2024-01-20T17:11:01.504Z,5.30
2024-01-20T17:13:27.873Z,5.88
2024-01-20T17:15:54.261Z,5.80
2024-01-20T17:18:20.757Z,5.35
2024-01-20T17:20:47.185Z,5.40
2024-01-20T17:23:13.551Z,5.38
2024-01-20T17:25:40.023Z,5.38
2024-01-20T17:28:06.413Z,4.93
2024-01-20T17:30:32.935Z,5.68
2024-01-20T17:32:59.479Z,4.97
2024-01-20T17:35:25.877Z,5.35
2024-01-20T17:37:52.261Z,5.35
2024-01-20T17:40:18.797Z,5.07
2024-01-20T17:42:45.394Z,4.82
2024-01-20T17:45:12.028Z,5.20
2024-01-20T17:47:38.567Z,4.70
2024-01-20T17:50:05.255Z,5.38
2024-01-20T17:52:31.647Z,5.00
2024-01-20T17:54:58.131Z,4.72
2024-01-20T17:57:24.607Z,5.38
2024-01-20T17:59:51.078Z,5.75
2024-01-20T18:02:17.506Z,5.28
2024-01-20T18:04:44.106Z,5.10
2024-01-20T18:07:10.681Z,5.18
2024-01-20T18:09:37.268Z,5.65
2024-01-20T18:12:04.102Z,6.63
2024-01-20T18:14:30.800Z,7.22
2024-01-20T18:16:57.242Z,7.35
2024-01-20T18:19:23.778Z,8.40
2024-01-20T18:21:50.422Z,7.72
2024-01-20T18:24:16.917Z,7.75
2024-01-20T18:26:43.355Z,7.22
2024-01-20T18:29:09.796Z,7.35
2024-01-20T18:31:36.262Z,6.47
2024-01-20T18:34:02.933Z,6.43
2024-01-20T18:36:29.633Z,6.05
2024-01-20T18:38:56.022Z,5.38
2024-01-20T18:41:22.439Z,5.22
2024-01-20T18:43:48.933Z,5.75
2024-01-20T18:46:15.367Z,4.88
2024-01-20T18:48:41.843Z,4.47
2024-01-20T18:51:08.501Z,4.45
2024-01-20T18:53:34.948Z,5.10
2024-01-20T18:56:01.356Z,6.15
2024-01-20T18:58:27.835Z,6.88
2024-01-20T19:00:54.371Z,7.30
2024-01-20T19:03:20.878Z,8.38
2024-01-20T19:05:47.367Z,8.27
2024-01-20T19:08:13.895Z,8.55
2024-01-20T19:10:40.331Z,9.13
2024-01-20T19:13:06.796Z,9.07
2024-01-20T19:15:33.334Z,9.75
2024-01-20T19:17:59.890Z,10.10
2024-01-20T19:20:26.502Z,10.68
2024-01-20T19:22:53.127Z,9.95
2024-01-20T19:25:19.628Z,9.88
2024-01-20T19:27:46.180Z,9.90
2024-01-20T19:30:12.917Z,10.07
2024-01-20T19:32:41.233Z,10.25
2024-01-20T19:35:07.697Z,10.68
2024-01-20T19:37:34.174Z,10.23
2024-01-20T19:40:00.533Z,10.57
2024-01-20T19:42:27.055Z,10.27
2024-01-20T19:44:54.445Z,11.05
2024-01-20T19:47:22.134Z,11.05
2024-01-20T19:49:48.728Z,11.82
2024-01-20T19:52:15.162Z,13.15
2024-01-20T19:54:41.631Z,11.30
2024-01-20T19:57:08.187Z,12.57
2024-01-20T19:59:36.477Z,12.05
2024-01-20T20:02:02.905Z,12.75
2024-01-20T20:04:29.450Z,12.95
2024-01-20T20:06:55.957Z,12.98
2024-01-20T20:09:22.360Z,13.32
2024-01-20T20:11:48.794Z,13.05
2024-01-20T20:14:15.193Z,12.57
2024-01-20T20:16:41.765Z,13.60
2024-01-20T20:19:09.318Z,13.07
2024-01-20T20:21:35.894Z,13.00
2024-01-20T20:24:02.326Z,13.23
2024-01-20T20:26:28.742Z,13.80
2024-01-20T20:28:55.169Z,13.70
2024-01-20T20:31:21.754Z,13.65
2024-01-20T20:33:48.422Z,14.45
2024-01-20T20:36:15.422Z,14.15
2024-01-20T20:38:42.661Z,14.25
2024-01-20T20:41:09.096Z,14.25
2024-01-20T20:43:35.483Z,13.48
2024-01-20T20:46:02.623Z,14.90
2024-01-20T20:48:29.106Z,13.98
2024-01-20T20:50:55.498Z,14.05
2024-01-20T20:53:21.946Z,15.13
2024-01-20T20:55:48.314Z,13.38
2024-01-20T20:58:14.713Z,14.50
2024-01-20T21:00:41.196Z,14.50
2024-01-20T21:03:07.722Z,13.88
2024-01-20T21:05:34.175Z,14.75
2024-01-20T21:08:00.602Z,15.25
2024-01-20T21:10:27.013Z,14.75
2024-01-20T21:12:53.478Z,16.27
2024-01-20T21:15:19.928Z,15.18
2024-01-20T21:17:46.437Z,16.80
2024-01-20T21:20:13.446Z,16.30
2024-01-20T21:22:39.891Z,15.23
2024-01-20T21:25:07.072Z,15.27
2024-01-20T21:27:33.535Z,15.73
2024-01-20T21:29:59.998Z,15.50
2024-01-20T21:32:27.543Z,15.75
2024-01-20T21:34:54.115Z,15.35
2024-01-20T21:37:20.534Z,15.40
2024-01-20T21:39:47.017Z,16.30
2024-01-20T21:42:13.402Z,15.98
2024-01-20T21:44:39.860Z,15.90
2024-01-20T21:47:06.275Z,16.15
2024-01-20T21:49:32.847Z,16.63
2024-01-20T21:51:59.414Z,16.23
2024-01-20T21:54:26.230Z,15.93
2024-01-20T21:56:52.655Z,16.35
2024-01-20T21:59:19.085Z,15.32
2024-01-20T22:01:45.521Z,16.63
2024-01-20T22:04:11.987Z,16.65
2024-01-20T22:06:39.127Z,16.25
2024-01-20T22:09:05.579Z,16.08
2024-01-20T22:11:32.615Z,17.38
2024-01-20T22:13:59.062Z,16.80
2024-01-20T22:16:25.462Z,17.73
2024-01-20T22:18:51.988Z,17.55
2024-01-20T22:21:18.443Z,16.98
2024-01-20T22:23:44.878Z,16.63
2024-01-20T22:26:20.866Z,17.42
2024-01-20T22:28:47.714Z,17.27
2024-01-20T22:31:14.439Z,17.15
2024-01-20T22:33:41.841Z,16.05
2024-01-20T22:36:08.501Z,16.92
2024-01-20T22:38:35.245Z,16.98
2024-01-20T22:41:01.740Z,17.58
2024-01-20T22:43:28.109Z,16.58
2024-01-20T22:45:54.528Z,16.40
2024-01-20T22:48:21.168Z,17.67
2024-01-20T22:50:47.663Z,17.20
2024-01-20T22:53:14.041Z,17.50
2024-01-20T22:55:40.492Z,17.08
2024-01-20T22:58:06.905Z,17.08
2024-01-20T23:00:33.389Z,18.58
2024-01-20T23:02:59.860Z,19.30
2024-01-20T23:05:26.273Z,18.67
2024-01-20T23:07:52.778Z,18.15
2024-01-20T23:10:19.141Z,18.85
2024-01-20T23:12:45.525Z,18.95
2024-01-20T23:15:12.230Z,17.63
2024-01-20T23:17:38.746Z,19.15
2024-01-20T23:20:05.720Z,18.00
2024-01-20T23:22:32.151Z,18.02
2024-01-20T23:24:58.544Z,19.58
2024-01-20T23:27:24.937Z,18.67
2024-01-20T23:29:51.356Z,18.52
2024-01-20T23:32:17.858Z,18.27
2024-01-20T23:34:44.352Z,18.77
2024-01-20T23:37:10.992Z,18.98
2024-01-20T23:39:37.409Z,18.77
2024-01-20T23:42:03.940Z,18.20
2024-01-20T23:44:30.335Z,18.10
2024-01-20T23:46:56.686Z,17.90
2024-01-20T23:49:23.157Z,19.23
2024-01-20T23:51:49.626Z,18.85
2024-01-20T23:54:16.056Z,17.98
2024-01-20T23:56:42.475Z,19.02
2024-01-20T23:59:08.864Z,18.52
